Levante — 9HOB7 — position and weather

sailwx.info

Track history (hours):
 
Tides and Currents Weather Stations Pressure Air Temp Water Temp Dewpoint Dewpoint Depression Visibility Wind Speed Wind Dir Waves Ship Positions

Levante

Last reported at 2014-Dec-16 05:15 UTC. Time now 2014-Dec-20 15:04 UTC.
Position N 24°29' E 119°15'.

Length 188.3 m; beam 28 m; draft 10.1 m.

Type: Ship. MMSI: 215440000.

Date/timePositionNaut miles runAvg speedWind from/ knotsBaromVisibWave heightAir tempDewpointWater temp
2014-Dec-16 05:15N 24°29' E 119°15'429 9.7
2014-Dec-14 09:15N 31°06' E 122°18'710.3
2014-Dec-14 08:33N 31°10' E 122°12'9 8.6
2014-Dec-14 07:33N 31°14' E 122°03'8 8.5
2014-Dec-14 06:33N 31°16' E 121°53'9 9.3
2014-Dec-14 05:34N 31°19' E 121°43'1110.7
2014-Dec-14 04:33N 31°25' E 121°32'9 9.4
2014-Dec-14 03:33N 31°31' E 121°24'1111.4
2014-Dec-14 02:33N 31°39' E 121°14'0 0.3
2014-Dec-14 01:33N 31°39' E 121°13'0 0.1
2014-Dec-14 00:33N 31°39' E 121°13'0 0.0
2014-Dec-13 23:31N 31°39' E 121°13'0 0.1
2014-Dec-13 22:31N 31°39' E 121°13'0 0.0
2014-Dec-13 21:31N 31°39' E 121°13'0 0.0
2014-Dec-13 20:31N 31°39' E 121°13'0 0.0
2014-Dec-13 19:31N 31°39' E 121°13'0 0.0
2014-Dec-13 18:28N 31°39' E 121°13'0 0.0
2014-Dec-13 17:28N 31°39' E 121°13'0 0.0
2014-Dec-13 16:31N 31°39' E 121°13'0 0.0
2014-Dec-13 15:28N 31°39' E 121°13'0 0.0
2014-Dec-13 14:32N 31°39' E 121°13'0 0.0
2014-Dec-13 13:32N 31°39' E 121°13'0 0.0
2014-Dec-13 12:31N 31°39' E 121°13'0 0.0
2014-Dec-13 11:31N 31°39' E 121°13'0 0.0
2014-Dec-13 10:31N 31°39' E 121°13'0 0.0
2014-Dec-13 09:31N 31°39' E 121°13'0 0.0
2014-Dec-13 08:31N 31°39' E 121°13'0 0.0
2014-Dec-13 07:31N 31°39' E 121°13'0 0.0
2014-Dec-13 06:19N 31°39' E 121°13'0 0.0
2014-Dec-13 05:25N 31°39' E 121°13'0 0.0
2014-Dec-13 04:31N 31°39' E 121°13'0 0.0
2014-Dec-13 03:28N 31°39' E 121°13'0 0.0
2014-Dec-13 02:31N 31°39' E 121°13'0 0.0
2014-Dec-13 01:31N 31°39' E 121°13'0 0.0
2014-Dec-13 00:30N 31°39' E 121°13'0 0.0
2014-Dec-12 23:25N 31°39' E 121°13'0 0.0
2014-Dec-12 22:31N 31°39' E 121°13'0 0.0
2014-Dec-12 21:31N 31°39' E 121°13'0 0.0
2014-Dec-12 20:31N 31°39' E 121°13'0 0.0
2014-Dec-12 19:30N 31°39' E 121°13'0 0.0
2014-Dec-12 18:31N 31°39' E 121°13'0 0.0
2014-Dec-12 17:30N 31°39' E 121°13'0 0.0
2014-Dec-12 16:31N 31°39' E 121°13'0 0.2
2014-Dec-12 15:33N 31°39' E 121°14'6 5.9
2014-Dec-12 14:33N 31°35' E 121°19'0 0.4
2014-Dec-12 13:31N 31°35' E 121°20'0 0.0
2014-Dec-12 12:31N 31°35' E 121°20'0 0.0
2014-Dec-12 11:31N 31°35' E 121°20'0 0.2
2014-Dec-12 10:31N 31°35' E 121°20'0 0.1
2014-Dec-12 09:29N 31°35' E 121°19'0 0.0
2014-Dec-12 08:33N 31°35' E 121°19'0 0.0
2014-Dec-12 07:33N 31°35' E 121°19'0 0.1
2014-Dec-12 06:30N 31°35' E 121°20'0 0.2
2014-Dec-12 05:32N 31°35' E 121°20'0 0.1
2014-Dec-12 04:32N 31°35' E 121°20'0 0.0
2014-Dec-12 03:32N 31°35' E 121°20'0 0.0
2014-Dec-12 02:31N 31°35' E 121°20'0 0.0
2014-Dec-12 01:31N 31°35' E 121°20'0 0.0
2014-Dec-12 00:32N 31°35' E 121°20'0 0.1
2014-Dec-11 23:32N 31°35' E 121°20'0 0.0
2014-Dec-11 22:34N 31°35' E 121°20'0 0.2
2014-Dec-11 21:33N 31°35' E 121°20'0 0.1
2014-Dec-11 20:33N 31°35' E 121°20'0 0.1
2014-Dec-11 19:33N 31°35' E 121°20'0 0.2
2014-Dec-11 18:33N 31°35' E 121°20'0 0.1
2014-Dec-11 17:34N 31°35' E 121°20'0 0.0
2014-Dec-11 16:34N 31°35' E 121°20'0 0.1
2014-Dec-11 15:34N 31°35' E 121°20'0 0.0
2014-Dec-11 14:33N 31°35' E 121°20'0 0.1
2014-Dec-11 13:33N 31°35' E 121°20'0 0.0
2014-Dec-11 12:33N 31°35' E 121°20'0 0.0
2014-Dec-11 11:33N 31°35' E 121°20'2 1.9
2014-Dec-11 10:33N 31°33' E 121°20'4 3.8
2014-Dec-11 09:33N 31°30' E 121°23'0 0.0
2014-Dec-11 08:32N 31°30' E 121°23'0 0.0
2014-Dec-11 07:32N 31°30' E 121°23'0 0.0
2014-Dec-11 06:30N 31°30' E 121°23'0 0.0
2014-Dec-11 05:29N 31°30' E 121°23'0 0.0
2014-Dec-11 04:33N 31°30' E 121°23'0 0.0
2014-Dec-11 03:32N 31°30' E 121°23'0 0.0
2014-Dec-11 02:30N 31°30' E 121°23'0 0.0
2014-Dec-11 01:32N 31°30' E 121°23'0 0.0
2014-Dec-11 00:32N 31°30' E 121°23'0 0.0
2014-Dec-10 23:32N 31°30' E 121°23'0 0.0
2014-Dec-10 22:28N 31°30' E 121°23'0 0.0
2014-Dec-10 21:28N 31°30' E 121°23'0 0.0
2014-Dec-10 20:34N 31°30' E 121°23'0 0.0
2014-Dec-10 19:29N 31°30' E 121°23'0 0.0
2014-Dec-10 18:32N 31°30' E 121°23'0 0.0
2014-Dec-10 17:32N 31°30' E 121°23'0 0.1
2014-Dec-10 16:32N 31°30' E 121°23'0 0.1
2014-Dec-10 15:32N 31°30' E 121°23'0 0.0
2014-Dec-10 14:32N 31°30' E 121°23'0 0.0
2014-Dec-10 13:31N 31°30' E 121°23'0 0.0
2014-Dec-10 12:31N 31°30' E 121°23'0 0.0
2014-Dec-10 11:33N 31°30' E 121°23'0 0.0
2014-Dec-10 10:32N 31°30' E 121°23'0 0.0
2014-Dec-10 09:31N 31°30' E 121°23'0 0.1
2014-Dec-10 08:30N 31°30' E 121°23'0 0.0
2014-Dec-10 07:22N 31°30' E 121°23'0 0.0
2014-Dec-10 06:32N 31°30' E 121°23'0 0.0
2014-Dec-10 05:32N 31°30' E 121°23'0 0.0
2014-Dec-10 04:29N 31°30' E 121°23'0 0.0
2014-Dec-10 03:25N 31°30' E 121°23'0 0.0
2014-Dec-10 02:31N 31°30' E 121°23'57515898.2
2014-Dec-10 01:33S 64°21' E 121°23'57515734.8
2014-Dec-10 00:32N 31°30' E 121°23'0 0.0
2014-Dec-09 23:33N 31°30' E 121°23'0 0.0
2014-Dec-09 22:30N 31°30' E 121°23'0 0.0
2014-Dec-09 21:30N 31°30' E 121°23'0 0.0
2014-Dec-09 20:31N 31°30' E 121°23'32273104.4
2014-Dec-09 19:29N 31°30' W 175°33'32273446.0
2014-Dec-09 18:33N 31°30' E 121°23'0 0.0
2014-Dec-09 17:33N 31°30' E 121°23'0 0.0
2014-Dec-09 16:32N 31°30' E 121°23'0 0.0
2014-Dec-09 15:33N 31°30' E 121°23'0 0.0
2014-Dec-09 14:33N 31°30' E 121°23'0 0.0
2014-Dec-09 13:33N 31°30' E 121°23'0 0.0
2014-Dec-09 12:30N 31°30' E 121°23'0 0.0
2014-Dec-09 11:33N 31°30' E 121°23'0 0.0
2014-Dec-09 10:32N 31°30' E 121°23'0 0.0
2014-Dec-09 09:31N 31°30' E 121°23'0 0.2
2014-Dec-09 08:33N 31°30' E 121°23'2 1.8
2014-Dec-09 07:31N 31°32' E 121°23'0 0.0
2014-Dec-09 06:33N 31°32' E 121°23'7 6.6
2014-Dec-09 05:33N 31°36' E 121°17'8 8.0
2014-Dec-09 04:33N 31°41' E 121°10'1111.0
2014-Dec-09 03:33N 31°47' E 120°58'2 1.6
2014-Dec-09 02:27N 31°46' E 120°56'0 0.0
2014-Dec-09 01:33N 31°46' E 120°56'0 0.0
2014-Dec-08 23:28N 31°46' E 120°56'0 0.0
2014-Dec-08 22:29N 31°46' E 120°56'0 0.0
2014-Dec-08 21:32N 31°46' E 120°56'0 0.0
2014-Dec-08 20:32N 31°46' E 120°56'0 0.0
2014-Dec-08 19:26N 31°46' E 120°56'0 0.0
2014-Dec-08 18:32N 31°46' E 120°56'0 0.0
2014-Dec-08 17:29N 31°46' E 120°56'0 0.0
2014-Dec-08 16:17N 31°46' E 120°56'0 0.0
2014-Dec-08 15:32N 31°46' E 120°56'0 0.0
2014-Dec-08 14:29N 31°46' E 120°56'0 0.0
2014-Dec-08 13:29N 31°46' E 120°56'0 0.0
2014-Dec-08 12:32N 31°46' E 120°56'0 0.0
2014-Dec-08 11:26N 31°46' E 120°56'0 0.0
2014-Dec-08 10:32N 31°46' E 120°56'0 0.0
2014-Dec-08 09:33N 31°46' E 120°56'0 0.0
2014-Dec-08 08:33N 31°46' E 120°56'0 0.0
2014-Dec-08 07:27N 31°46' E 120°56'0 0.0
2014-Dec-08 06:33N 31°46' E 120°56'0 0.0
2014-Dec-08 05:30N 31°46' E 120°56'0 0.0
2014-Dec-08 04:33N 31°46' E 120°56'0 0.0
2014-Dec-08 03:30N 31°46' E 120°56'0 0.0
2014-Dec-08 02:33N 31°46' E 120°56'0 0.0
2014-Dec-08 01:33N 31°46' E 120°56'0 0.0
2014-Dec-08 00:33N 31°46' E 120°56'0 0.0
2014-Dec-07 23:33N 31°46' E 120°56'0 0.0
2014-Dec-07 22:33N 31°46' E 120°56'0 0.0
2014-Dec-07 21:33N 31°46' E 120°56'0 0.0
2014-Dec-07 20:33N 31°46' E 120°56'0 0.0
2014-Dec-07 19:33N 31°46' E 120°56'0 0.0
2014-Dec-07 18:33N 31°46' E 120°56'0 0.0
2014-Dec-07 17:33N 31°46' E 120°56'0 0.0
2014-Dec-07 16:30N 31°46' E 120°56'0 0.0
2014-Dec-07 15:15N 31°46' E 120°56'0 0.0
2014-Dec-07 14:33N 31°46' E 120°56'0 0.0
2014-Dec-07 13:33N 31°46' E 120°56'0 0.0
2014-Dec-07 12:27N 31°46' E 120°56'0 0.0
2014-Dec-07 11:33N 31°46' E 120°56'0 0.0
2014-Dec-07 10:27N 31°46' E 120°56'0 0.0
2014-Dec-07 09:33N 31°46' E 120°56'0 0.0
2014-Dec-07 08:33N 31°46' E 120°56'0 0.0
2014-Dec-07 07:26N 31°46' E 120°56'0 0.0
2014-Dec-07 06:30N 31°46' E 120°56'0 0.0
2014-Dec-07 05:32N 31°46' E 120°56'0 0.0
2014-Dec-07 04:32N 31°46' E 120°56'0 0.0
2014-Dec-07 03:32N 31°46' E 120°56'0 0.0
2014-Dec-07 02:32N 31°46' E 120°56'0 0.0
2014-Dec-07 01:29N 31°46' E 120°56'0 0.0
2014-Dec-07 00:32N 31°46' E 120°56'0 0.0
2014-Dec-06 23:32N 31°46' E 120°56'0 0.0
2014-Dec-06 22:33N 31°46' E 120°56'0 0.0
2014-Dec-06 21:32N 31°46' E 120°56'0 0.0
2014-Dec-06 20:32N 31°46' E 120°56'0 0.0
2014-Dec-06 19:32N 31°46' E 120°56'0 0.0
2014-Dec-06 18:32N 31°46' E 120°56'0 0.0
2014-Dec-06 17:26N 31°46' E 120°56'0 0.0
2014-Dec-06 16:32N 31°46' E 120°56'0 0.0
2014-Dec-06 15:32N 31°46' E 120°56'0 0.0
2014-Dec-06 14:33N 31°46' E 120°56'0 0.0
2014-Dec-06 13:28N 31°46' E 120°56'0 0.0
2014-Dec-06 12:31N 31°46' E 120°56'0 0.0
2014-Dec-06 11:34N 31°46' E 120°56'5 4.6
2014-Dec-06 10:33N 31°46' E 121°02'6 5.8
2014-Dec-06 09:33N 31°44' E 121°08'0 0.3
2014-Dec-06 08:33N 31°43' E 121°08'1110.9
2014-Dec-06 07:33N 31°48' E 120°56'1111.4
2014-Dec-06 06:33N 31°58' E 120°51'10 9.9
2014-Dec-06 05:33N 31°60' E 120°39'  
Track history (hours):
 
Tides and Currents Weather Stations Pressure Air Temp Water Temp Dewpoint Dewpoint Depression Visibility Wind Speed Wind Dir Waves Ship Positions

Levante

Last reported at 2014-Dec-16 05:15 UTC. Time now 2014-Dec-20 15:04 UTC.
Position N 24°29' E 119°15'.

Length 188.3 m; beam 28 m; draft 10.1 m.

Type: Ship. MMSI: 215440000.

Date/timePositionNaut miles runAvg speedWind from/ knotsBaromVisibWave heightAir tempDewpointWater temp
2014-Dec-16 05:15N 24°29' E 119°15'429 9.7
2014-Dec-14 09:15N 31°06' E 122°18'710.3
2014-Dec-14 08:33N 31°10' E 122°12'9 8.6
2014-Dec-14 07:33N 31°14' E 122°03'8 8.5
2014-Dec-14 06:33N 31°16' E 121°53'9 9.3
2014-Dec-14 05:34N 31°19' E 121°43'1110.7
2014-Dec-14 04:33N 31°25' E 121°32'9 9.4
2014-Dec-14 03:33N 31°31' E 121°24'1111.4
2014-Dec-14 02:33N 31°39' E 121°14'0 0.3
2014-Dec-14 01:33N 31°39' E 121°13'0 0.1
2014-Dec-14 00:33N 31°39' E 121°13'0 0.0
2014-Dec-13 23:31N 31°39' E 121°13'0 0.1
2014-Dec-13 22:31N 31°39' E 121°13'0 0.0
2014-Dec-13 21:31N 31°39' E 121°13'0 0.0
2014-Dec-13 20:31N 31°39' E 121°13'0 0.0
2014-Dec-13 19:31N 31°39' E 121°13'0 0.0
2014-Dec-13 18:28N 31°39' E 121°13'0 0.0
2014-Dec-13 17:28N 31°39' E 121°13'0 0.0
2014-Dec-13 16:31N 31°39' E 121°13'0 0.0
2014-Dec-13 15:28N 31°39' E 121°13'0 0.0
2014-Dec-13 14:32N 31°39' E 121°13'0 0.0
2014-Dec-13 13:32N 31°39' E 121°13'0 0.0
2014-Dec-13 12:31N 31°39' E 121°13'0 0.0
2014-Dec-13 11:31N 31°39' E 121°13'0 0.0
2014-Dec-13 10:31N 31°39' E 121°13'0 0.0
2014-Dec-13 09:31N 31°39' E 121°13'0 0.0
2014-Dec-13 08:31N 31°39' E 121°13'0 0.0
2014-Dec-13 07:31N 31°39' E 121°13'0 0.0
2014-Dec-13 06:19N 31°39' E 121°13'0 0.0
2014-Dec-13 05:25N 31°39' E 121°13'0 0.0
2014-Dec-13 04:31N 31°39' E 121°13'0 0.0
2014-Dec-13 03:28N 31°39' E 121°13'0 0.0
2014-Dec-13 02:31N 31°39' E 121°13'0 0.0
2014-Dec-13 01:31N 31°39' E 121°13'0 0.0
2014-Dec-13 00:30N 31°39' E 121°13'0 0.0
2014-Dec-12 23:25N 31°39' E 121°13'0 0.0
2014-Dec-12 22:31N 31°39' E 121°13'0 0.0
2014-Dec-12 21:31N 31°39' E 121°13'0 0.0
2014-Dec-12 20:31N 31°39' E 121°13'0 0.0
2014-Dec-12 19:30N 31°39' E 121°13'0 0.0
2014-Dec-12 18:31N 31°39' E 121°13'0 0.0
2014-Dec-12 17:30N 31°39' E 121°13'0 0.0
2014-Dec-12 16:31N 31°39' E 121°13'0 0.2
2014-Dec-12 15:33N 31°39' E 121°14'6 5.9
2014-Dec-12 14:33N 31°35' E 121°19'0 0.4
2014-Dec-12 13:31N 31°35' E 121°20'0 0.0
2014-Dec-12 12:31N 31°35' E 121°20'0 0.0
2014-Dec-12 11:31N 31°35' E 121°20'0 0.2
2014-Dec-12 10:31N 31°35' E 121°20'0 0.1
2014-Dec-12 09:29N 31°35' E 121°19'0 0.0
2014-Dec-12 08:33N 31°35' E 121°19'0 0.0
2014-Dec-12 07:33N 31°35' E 121°19'0 0.1
2014-Dec-12 06:30N 31°35' E 121°20'0 0.2
2014-Dec-12 05:32N 31°35' E 121°20'0 0.1
2014-Dec-12 04:32N 31°35' E 121°20'0 0.0
2014-Dec-12 03:32N 31°35' E 121°20'0 0.0
2014-Dec-12 02:31N 31°35' E 121°20'0 0.0
2014-Dec-12 01:31N 31°35' E 121°20'0 0.0
2014-Dec-12 00:32N 31°35' E 121°20'0 0.1
2014-Dec-11 23:32N 31°35' E 121°20'0 0.0
2014-Dec-11 22:34N 31°35' E 121°20'0 0.2
2014-Dec-11 21:33N 31°35' E 121°20'0 0.1
2014-Dec-11 20:33N 31°35' E 121°20'0 0.1
2014-Dec-11 19:33N 31°35' E 121°20'0 0.2
2014-Dec-11 18:33N 31°35' E 121°20'0 0.1
2014-Dec-11 17:34N 31°35' E 121°20'0 0.0
2014-Dec-11 16:34N 31°35' E 121°20'0 0.1
2014-Dec-11 15:34N 31°35' E 121°20'0 0.0
2014-Dec-11 14:33N 31°35' E 121°20'0 0.1
2014-Dec-11 13:33N 31°35' E 121°20'0 0.0
2014-Dec-11 12:33N 31°35' E 121°20'0 0.0
2014-Dec-11 11:33N 31°35' E 121°20'2 1.9
2014-Dec-11 10:33N 31°33' E 121°20'4 3.8
2014-Dec-11 09:33N 31°30' E 121°23'0 0.0
2014-Dec-11 08:32N 31°30' E 121°23'0 0.0
2014-Dec-11 07:32N 31°30' E 121°23'0 0.0
2014-Dec-11 06:30N 31°30' E 121°23'0 0.0
2014-Dec-11 05:29N 31°30' E 121°23'0 0.0
2014-Dec-11 04:33N 31°30' E 121°23'0 0.0
2014-Dec-11 03:32N 31°30' E 121°23'0 0.0
2014-Dec-11 02:30N 31°30' E 121°23'0 0.0
2014-Dec-11 01:32N 31°30' E 121°23'0 0.0
2014-Dec-11 00:32N 31°30' E 121°23'0 0.0
2014-Dec-10 23:32N 31°30' E 121°23'0 0.0
2014-Dec-10 22:28N 31°30' E 121°23'0 0.0
2014-Dec-10 21:28N 31°30' E 121°23'0 0.0
2014-Dec-10 20:34N 31°30' E 121°23'0 0.0
2014-Dec-10 19:29N 31°30' E 121°23'0 0.0
2014-Dec-10 18:32N 31°30' E 121°23'0 0.0
2014-Dec-10 17:32N 31°30' E 121°23'0 0.1
2014-Dec-10 16:32N 31°30' E 121°23'0 0.1
2014-Dec-10 15:32N 31°30' E 121°23'0 0.0
2014-Dec-10 14:32N 31°30' E 121°23'0 0.0
2014-Dec-10 13:31N 31°30' E 121°23'0 0.0
2014-Dec-10 12:31N 31°30' E 121°23'0 0.0
2014-Dec-10 11:33N 31°30' E 121°23'0 0.0
2014-Dec-10 10:32N 31°30' E 121°23'0 0.0
2014-Dec-10 09:31N 31°30' E 121°23'0 0.1
2014-Dec-10 08:30N 31°30' E 121°23'0 0.0
2014-Dec-10 07:22N 31°30' E 121°23'0 0.0
2014-Dec-10 06:32N 31°30' E 121°23'0 0.0
2014-Dec-10 05:32N 31°30' E 121°23'0 0.0
2014-Dec-10 04:29N 31°30' E 121°23'0 0.0
2014-Dec-10 03:25N 31°30' E 121°23'0 0.0
2014-Dec-10 02:31N 31°30' E 121°23'57515898.2
2014-Dec-10 01:33S 64°21' E 121°23'57515734.8
2014-Dec-10 00:32N 31°30' E 121°23'0 0.0
2014-Dec-09 23:33N 31°30' E 121°23'0 0.0
2014-Dec-09 22:30N 31°30' E 121°23'0 0.0
2014-Dec-09 21:30N 31°30' E 121°23'0 0.0
2014-Dec-09 20:31N 31°30' E 121°23'32273104.4
2014-Dec-09 19:29N 31°30' W 175°33'32273446.0
2014-Dec-09 18:33N 31°30' E 121°23'0 0.0
2014-Dec-09 17:33N 31°30' E 121°23'0 0.0
2014-Dec-09 16:32N 31°30' E 121°23'0 0.0
2014-Dec-09 15:33N 31°30' E 121°23'0 0.0
2014-Dec-09 14:33N 31°30' E 121°23'0 0.0
2014-Dec-09 13:33N 31°30' E 121°23'0 0.0
2014-Dec-09 12:30N 31°30' E 121°23'0 0.0
2014-Dec-09 11:33N 31°30' E 121°23'0 0.0
2014-Dec-09 10:32N 31°30' E 121°23'0 0.0
2014-Dec-09 09:31N 31°30' E 121°23'0 0.2
2014-Dec-09 08:33N 31°30' E 121°23'2 1.8
2014-Dec-09 07:31N 31°32' E 121°23'0 0.0
2014-Dec-09 06:33N 31°32' E 121°23'7 6.6
2014-Dec-09 05:33N 31°36' E 121°17'8 8.0
2014-Dec-09 04:33N 31°41' E 121°10'1111.0
2014-Dec-09 03:33N 31°47' E 120°58'2 1.6
2014-Dec-09 02:27N 31°46' E 120°56'0 0.0
2014-Dec-09 01:33N 31°46' E 120°56'0 0.0
2014-Dec-08 23:28N 31°46' E 120°56'0 0.0
2014-Dec-08 22:29N 31°46' E 120°56'0 0.0
2014-Dec-08 21:32N 31°46' E 120°56'0 0.0
2014-Dec-08 20:32N 31°46' E 120°56'0 0.0
2014-Dec-08 19:26N 31°46' E 120°56'0 0.0
2014-Dec-08 18:32N 31°46' E 120°56'0 0.0
2014-Dec-08 17:29N 31°46' E 120°56'0 0.0
2014-Dec-08 16:17N 31°46' E 120°56'0 0.0
2014-Dec-08 15:32N 31°46' E 120°56'0 0.0
2014-Dec-08 14:29N 31°46' E 120°56'0 0.0
2014-Dec-08 13:29N 31°46' E 120°56'0 0.0
2014-Dec-08 12:32N 31°46' E 120°56'0 0.0
2014-Dec-08 11:26N 31°46' E 120°56'0 0.0
2014-Dec-08 10:32N 31°46' E 120°56'0 0.0
2014-Dec-08 09:33N 31°46' E 120°56'0 0.0
2014-Dec-08 08:33N 31°46' E 120°56'0 0.0
2014-Dec-08 07:27N 31°46' E 120°56'0 0.0
2014-Dec-08 06:33N 31°46' E 120°56'0 0.0
2014-Dec-08 05:30N 31°46' E 120°56'0 0.0
2014-Dec-08 04:33N 31°46' E 120°56'0 0.0
2014-Dec-08 03:30N 31°46' E 120°56'0 0.0
2014-Dec-08 02:33N 31°46' E 120°56'0 0.0
2014-Dec-08 01:33N 31°46' E 120°56'0 0.0
2014-Dec-08 00:33N 31°46' E 120°56'0 0.0
2014-Dec-07 23:33N 31°46' E 120°56'0 0.0
2014-Dec-07 22:33N 31°46' E 120°56'0 0.0
2014-Dec-07 21:33N 31°46' E 120°56'0 0.0
2014-Dec-07 20:33N 31°46' E 120°56'0 0.0
2014-Dec-07 19:33N 31°46' E 120°56'0 0.0
2014-Dec-07 18:33N 31°46' E 120°56'0 0.0
2014-Dec-07 17:33N 31°46' E 120°56'0 0.0
2014-Dec-07 16:30N 31°46' E 120°56'0 0.0
2014-Dec-07 15:15N 31°46' E 120°56'0 0.0
2014-Dec-07 14:33N 31°46' E 120°56'0 0.0
2014-Dec-07 13:33N 31°46' E 120°56'0 0.0
2014-Dec-07 12:27N 31°46' E 120°56'0 0.0
2014-Dec-07 11:33N 31°46' E 120°56'0 0.0
2014-Dec-07 10:27N 31°46' E 120°56'0 0.0
2014-Dec-07 09:33N 31°46' E 120°56'0 0.0
2014-Dec-07 08:33N 31°46' E 120°56'0 0.0
2014-Dec-07 07:26N 31°46' E 120°56'0 0.0
2014-Dec-07 06:30N 31°46' E 120°56'0 0.0
2014-Dec-07 05:32N 31°46' E 120°56'0 0.0
2014-Dec-07 04:32N 31°46' E 120°56'0 0.0
2014-Dec-07 03:32N 31°46' E 120°56'0 0.0
2014-Dec-07 02:32N 31°46' E 120°56'0 0.0
2014-Dec-07 01:29N 31°46' E 120°56'0 0.0
2014-Dec-07 00:32N 31°46' E 120°56'0 0.0
2014-Dec-06 23:32N 31°46' E 120°56'0 0.0
2014-Dec-06 22:33N 31°46' E 120°56'0 0.0
2014-Dec-06 21:32N 31°46' E 120°56'0 0.0
2014-Dec-06 20:32N 31°46' E 120°56'0 0.0
2014-Dec-06 19:32N 31°46' E 120°56'0 0.0
2014-Dec-06 18:32N 31°46' E 120°56'0 0.0
2014-Dec-06 17:26N 31°46' E 120°56'0 0.0
2014-Dec-06 16:32N 31°46' E 120°56'0 0.0
2014-Dec-06 15:32N 31°46' E 120°56'0 0.0
2014-Dec-06 14:33N 31°46' E 120°56'0 0.0
2014-Dec-06 13:28N 31°46' E 120°56'0 0.0
2014-Dec-06 12:31N 31°46' E 120°56'0 0.0
2014-Dec-06 11:34N 31°46' E 120°56'5 4.6
2014-Dec-06 10:33N 31°46' E 121°02'6 5.8
2014-Dec-06 09:33N 31°44' E 121°08'0 0.3
2014-Dec-06 08:33N 31°43' E 121°08'1110.9
2014-Dec-06 07:33N 31°48' E 120°56'1111.4
2014-Dec-06 06:33N 31°58' E 120°51'10 9.9
2014-Dec-06 05:33N 31°60' E 120°39'  

Dump ship's entire track history